VAM | Vabird-VBD

Virtual Vabird! Aerolínea Virtual de habla hispana, desde 2011




 INFORMACIÓN METAR y TAF
METAR FOR MUHA
ADDS - METARS form results

(1516 UTC 08 March 2021)
Data provider http://aviationweather.gov/metar/data/
 
METAR text: MUHA 081455Z 06015KT 040V110 9000 SCT025TCU 24/14 Q1025
Conditions at: MUHA (HAVANA/JOSE MAR , CU) observed 1455 UTC 08 March 2021
Temperature: 24.0°C (75°F)
Dewpoint: 14.0°C (57°F) [RH = 54%]
Pressure (altimeter): 30.27 inches Hg (1025.0 mb)
Winds: from the ENE (60 degrees) at 17 MPH (15 knots; 7.7 m/s)
Visibility: 6 miles ( 9 km)
Ceiling: at least 12,000 feet AGL
Clouds: scattered clouds at 2500 feet AGL
Weather: no significant weather observed at this time

METAR text: MUHA 081431Z 07015KT 040V100 9000 FEW025TCU SCT045 23/13 Q1025
Conditions at: MUHA (HAVANA/JOSE MAR , CU) observed 1431 UTC 08 March 2021
Temperature: 23.0°C (73°F)
Dewpoint: 13.0°C (55°F) [RH = 53%]
Pressure (altimeter): 30.27 inches Hg (1025.0 mb)
Winds: from the ENE (70 degrees) at 17 MPH (15 knots; 7.7 m/s)
Visibility: 6 miles ( 9 km)
Ceiling: at least 12,000 feet AGL
Clouds: few clouds at 2500 feet AGL
scattered clouds at 4500 feet AGL
Weather: no significant weather observed at this time

Forecast for: MUHA (HAVANA/JOSE MAR , CU)
Text: MUHA 081100Z 0812/0912 03016KT 9000 BKN020
Forecast period: 1200 UTC 08 March 2021 to 0100 UTC 09 March 2021
Forecast type: FROM: standard forecast or significant change
Winds: from the NNE (30 degrees) at 18 MPH (16 knots; 8.2 m/s)
Visibility: 6 miles (9 km)
Ceiling: 2000 feet AGL
Clouds: broken clouds at 2000 feet AGL
Weather: no significant weather forecast for this period
Text: TEMPO 0812/0817 6000 RA BKN018
Forecast period: 1200 to 1700 UTC 08 March 2021
Forecast type: TEMPORARY: The following changes expected for less than half the time period
Visibility: 4 miles (6 km)
Ceiling: 1800 feet AGL
Clouds: broken clouds at 1800 feet AGL
Weather: RA  (moderate rain)
Text: BECMG 0901/0903 04010KT SCT030
Forecast period: 0100 to 1200 UTC 09 March 2021
Forecast type: BECOMING: Conditions expected to become as follows by 0300 UTC 09 March 2021
Winds: from the NE (40 degrees) at 12 MPH (10 knots; 5.1 m/s)
Visibility: 6 miles (9 km)
Ceiling: at least 12,000 feet AGL
Clouds: scattered clouds at 3000 feet AGL
Weather: no significant weather forecast for this period
Text: TEMPO 0908/0912 6000 RA BKN018
Forecast period: 0800 to 1200 UTC 09 March 2021
Forecast type: TEMPORARY: The following changes expected for less than half the time period
Visibility: 4 miles (6 km)
Ceiling: 1800 feet AGL
Clouds: broken clouds at 1800 feet AGL
Weather: RA  (moderate rain)

 MAPA DE AEROPUERTO

 INFORMACIÓN DE PISTA